E.r.bristol — A8XQ6 — position and weather

sailwx.info

Track history (hours):
 
Tides and Currents Weather Stations Pressure Air Temp Water Temp Dewpoint Dewpoint Depression Visibility Wind Speed Wind Dir Waves Ship Positions

E.r.bristol

Last reported at 2018-Apr-27 21:16 UTC. Time now 2018-May-25 16:55 UTC.
Position N 06°17' E 002°33'.
Warning: this ship's position is 27 days out of date.

Length 188 m; draft 10 m.

Type: Cargo ship. MMSI: 636092151.

Date/timePositionNaut miles runAvg speedWind from/ knotsBaromVisibWave heightAir tempDewpointWater temp
2018-Apr-27 21:16N 06°17' E 002°33'0 0.0
2018-Apr-27 20:31N 06°17' E 002°33'0 0.0
2018-Apr-27 20:22N 06°17' E 002°33'0 0.0
2018-Apr-27 19:58N 06°17' E 002°33'0 0.0
2018-Apr-27 19:25N 06°17' E 002°33'0 0.0
2018-Apr-27 18:22N 06°17' E 002°33'0 0.0
2018-Apr-27 16:07N 06°17' E 002°33'0 0.0
2018-Apr-27 15:55N 06°17' E 002°33'0 0.0
2018-Apr-27 15:28N 06°17' E 002°33'0 0.0
2018-Apr-27 14:58N 06°17' E 002°33'0 0.0
2018-Apr-27 14:28N 06°17' E 002°33'0 0.0
2018-Apr-25 21:10N 06°17' E 002°33'0 0.1
2018-Apr-25 20:52N 06°17' E 002°33'  
2018-Apr-21 06:03N 05°03' E 000°33'614.1
2018-Apr-21 05:36N 04°60' E 000°28'3714.3
2018-Apr-21 03:00N 04°41' W 000°05'  
2018-Apr-18 13:17N 07°01' W 013°23'413.1
2018-Apr-18 13:00N 07°03' W 013°26'713.2
2018-Apr-18 12:30N 07°06' W 013°32'713.1
2018-Apr-18 12:00N 07°09' W 013°38'3412.9
2018-Apr-18 09:24N 07°28' W 014°06'2113.2
2018-Apr-18 07:47N 07°42' W 014°23'413.1
2018-Apr-18 07:30N 07°44' W 014°26'612.5
2018-Apr-18 07:00N 07°47' W 014°31'612.6
2018-Apr-18 06:30N 07°51' W 014°36'712.7
2018-Apr-18 05:55N 07°56' W 014°41'512.6
2018-Apr-18 05:30N 08°00' W 014°44'612.3
2018-Apr-18 05:00N 08°05' W 014°48'612.3
2018-Apr-18 04:30N 08°09' W 014°53'612.5
2018-Apr-18 04:00N 08°13' W 014°58'712.4
2018-Apr-18 03:25N 08°18' W 015°03'512.4
2018-Apr-18 03:00N 08°21' W 015°07'3212.3
2018-Apr-18 00:24N 08°43' W 015°31'812.3
2018-Apr-17 23:43N 08°48' W 015°38'312.5
2018-Apr-17 23:29N 08°50' W 015°40'712.5
2018-Apr-17 22:58N 08°54' W 015°45'612.4
2018-Apr-17 22:29N 08°58' W 015°49'612.3
2018-Apr-17 22:00N 09°02' W 015°54'612.1
2018-Apr-17 21:29N 09°06' W 015°59'  
Track history (hours):
 
Tides and Currents Weather Stations Pressure Air Temp Water Temp Dewpoint Dewpoint Depression Visibility Wind Speed Wind Dir Waves Ship Positions

E.r.bristol

Last reported at 2018-Apr-27 21:16 UTC. Time now 2018-May-25 16:55 UTC.
Position N 06°17' E 002°33'.
Warning: this ship's position is 27 days out of date.

Length 188 m; draft 10 m.

Type: Cargo ship. MMSI: 636092151.

Date/timePositionNaut miles runAvg speedWind from/ knotsBaromVisibWave heightAir tempDewpointWater temp
2018-Apr-27 21:16N 06°17' E 002°33'0 0.0
2018-Apr-27 20:31N 06°17' E 002°33'0 0.0
2018-Apr-27 20:22N 06°17' E 002°33'0 0.0
2018-Apr-27 19:58N 06°17' E 002°33'0 0.0
2018-Apr-27 19:25N 06°17' E 002°33'0 0.0
2018-Apr-27 18:22N 06°17' E 002°33'0 0.0
2018-Apr-27 16:07N 06°17' E 002°33'0 0.0
2018-Apr-27 15:55N 06°17' E 002°33'0 0.0
2018-Apr-27 15:28N 06°17' E 002°33'0 0.0
2018-Apr-27 14:58N 06°17' E 002°33'0 0.0
2018-Apr-27 14:28N 06°17' E 002°33'0 0.0
2018-Apr-25 21:10N 06°17' E 002°33'0 0.1
2018-Apr-25 20:52N 06°17' E 002°33'  
2018-Apr-21 06:03N 05°03' E 000°33'614.1
2018-Apr-21 05:36N 04°60' E 000°28'3714.3
2018-Apr-21 03:00N 04°41' W 000°05'  
2018-Apr-18 13:17N 07°01' W 013°23'413.1
2018-Apr-18 13:00N 07°03' W 013°26'713.2
2018-Apr-18 12:30N 07°06' W 013°32'713.1
2018-Apr-18 12:00N 07°09' W 013°38'3412.9
2018-Apr-18 09:24N 07°28' W 014°06'2113.2
2018-Apr-18 07:47N 07°42' W 014°23'413.1
2018-Apr-18 07:30N 07°44' W 014°26'612.5
2018-Apr-18 07:00N 07°47' W 014°31'612.6
2018-Apr-18 06:30N 07°51' W 014°36'712.7
2018-Apr-18 05:55N 07°56' W 014°41'512.6
2018-Apr-18 05:30N 08°00' W 014°44'612.3
2018-Apr-18 05:00N 08°05' W 014°48'612.3
2018-Apr-18 04:30N 08°09' W 014°53'612.5
2018-Apr-18 04:00N 08°13' W 014°58'712.4
2018-Apr-18 03:25N 08°18' W 015°03'512.4
2018-Apr-18 03:00N 08°21' W 015°07'3212.3
2018-Apr-18 00:24N 08°43' W 015°31'812.3
2018-Apr-17 23:43N 08°48' W 015°38'312.5
2018-Apr-17 23:29N 08°50' W 015°40'712.5
2018-Apr-17 22:58N 08°54' W 015°45'612.4
2018-Apr-17 22:29N 08°58' W 015°49'612.3
2018-Apr-17 22:00N 09°02' W 015°54'612.1
2018-Apr-17 21:29N 09°06' W 015°59'  

Dump ship's entire track history